Time;durP1;ratioP1;P1;durP2;ratioP2;P2;SDS_P1;SDS_P2;PMS_P1;PMS_P2;Temp;Humidity;BMP_temperature;BMP_pressure;BME280_temperature;BME280_humidity;BME280_pressure;Samples;Min_cycle;Max_cycle;Signal;HPM_P1;HPM_P2
2022/03/30 00:01:21;;;;;;;4.20;3.03;;;;;;;-6.50;68.78;99993.44;4974955;28;20034;-62
2022/03/30 00:03:47;;;;;;;4.30;3.17;;;;;;;-6.47;68.79;100006.22;4974892;28;20066;-62
2022/03/30 00:06:12;;;;;;;5.43;2.80;;;;;;;-6.47;69.34;99997.63;4975140;28;20482;-64
2022/03/30 00:08:38;;;;;;;8.00;4.73;;;;;;;-6.54;69.22;100001.41;4977562;28;20538;-68
2022/03/30 00:11:03;;;;;;;3.23;2.93;;;;;;;-6.58;69.37;100001.56;4974988;28;20490;-63
2022/03/30 00:13:29;;;;;;;3.43;3.13;;;;;;;-6.63;69.84;99993.19;4974834;28;20117;-62
2022/03/30 00:15:55;;;;;;;4.03;3.53;;;;;;;-6.61;70.14;100001.72;4974626;28;20130;-64
2022/03/30 00:18:21;;;;;;;3.10;2.90;;;;;;;-6.66;69.85;99985.53;4985636;28;20039;-65
2022/03/30 00:20:46;;;;;;;3.55;3.25;;;;;;;-6.66;69.77;99988.13;4988665;28;20042;-63
2022/03/30 00:23:12;;;;;;;3.97;3.10;;;;;;;-6.65;69.57;99983.78;4986988;28;20030;-63
2022/03/30 00:25:37;;;;;;;3.43;3.00;;;;;;;-6.56;69.73;99994.56;4971007;28;20130;-62
2022/03/30 00:28:03;;;;;;;3.20;2.90;;;;;;;-6.59;69.64;99981.78;4975524;28;20035;-62
2022/03/30 00:30:29;;;;;;;3.50;3.20;;;;;;;-6.56;69.27;99984.22;4974886;28;20442;-62
2022/03/30 00:32:54;;;;;;;4.77;3.33;;;;;;;-6.55;69.98;99985.03;4974804;28;20077;-64
2022/03/30 00:35:20;;;;;;;3.60;2.97;;;;;;;-6.54;69.61;99991.06;4974670;28;20126;-65
2022/03/30 00:37:46;;;;;;;6.77;3.57;;;;;;;-6.54;70.21;99991.06;4974597;28;20062;-62
2022/03/30 00:40:37;;;;;;;5.25;3.15;;;;;;;-6.53;70.43;99992.75;4976110;28;20137;-64
2022/03/30 00:43:02;;;;;;;4.43;3.20;;;;;;;-6.64;70.22;99978.56;4973934;28;20054;-64
2022/03/30 00:45:29;;;;;;;6.77;3.70;;;;;;;-6.58;69.96;99980.84;4957074;28;20038;-63
2022/03/30 00:47:54;;;;;;;3.75;2.97;;;;;;;-6.59;69.76;99983.53;4974080;28;20419;-64
2022/03/30 00:50:22;;;;;;;5.90;3.87;;;;;;;-6.56;69.57;99989.38;4974178;28;20039;-62
2022/03/30 00:52:50;;;;;;;4.40;3.10;;;;;;;-6.54;69.61;99991.06;4975018;28;20042;-63
2022/03/30 00:55:17;;;;;;;3.50;3.22;;;;;;;-6.55;69.41;99985.03;4976824;28;20073;-63
2022/03/30 00:57:43;;;;;;;4.18;3.88;;;;;;;-6.56;69.49;99984.22;4974192;28;20061;-65
2022/03/30 01:00:12;;;;;;;3.47;3.13;;;;;;;-6.56;69.12;99984.22;4973801;28;20445;-63
2022/03/30 01:02:40;;;;;;;4.75;3.33;;;;;;;-6.53;68.88;99983.22;4973995;28;20121;-63
2022/03/30 01:05:07;;;;;;;4.03;3.72;;;;;;;-6.57;68.72;99977.34;4973796;28;20403;-66
2022/03/30 01:07:32;;;;;;;3.95;3.28;;;;;;;-6.54;68.62;99970.34;4973856;28;20129;-63
2022/03/30 01:09:58;;;;;;;3.33;2.93;;;;;;;-6.50;68.52;99977.88;4976656;28;20070;-62
2022/03/30 01:12:25;;;;;;;3.47;3.17;;;;;;;-6.49;68.17;99978.72;4973826;28;20043;-62
2022/03/30 01:14:52;;;;;;;6.85;3.60;;;;;;;-6.64;67.60;99944.06;4974393;28;20777;-62
2022/03/30 01:17:19;;;;;;;4.75;3.85;;;;;;;-6.54;67.82;99971.19;4956406;28;20121;-63
2022/03/30 01:19:44;;;;;;;3.92;3.15;;;;;;;-6.55;67.19;99966.91;4973696;28;20081;-61
2022/03/30 01:22:10;;;;;;;3.43;3.13;;;;;;;-6.55;67.12;99972.09;4973696;28;20034;-63
2022/03/30 01:24:36;;;;;;;4.50;3.47;;;;;;;-6.62;67.90;99968.13;4975584;28;20030;-63
2022/03/30 01:27:02;;;;;;;8.90;3.77;;;;;;;-6.69;67.35;99957.19;4973696;28;20486;-63
2022/03/30 01:32:27;;;;;;;5.20;3.58;;;;;;;-6.64;66.96;99946.66;4974092;28;20057;-64
2022/03/30 01:34:58;;;;;;;5.57;3.03;;;;;;;-6.60;66.60;99955.94;4973791;28;20490;-64
2022/03/30 01:37:27;;;;;;;4.00;3.30;;;;;;;-6.49;66.34;99974.38;4956093;28;20379;-62
2022/03/30 01:39:53;;;;;;;5.20;2.87;;;;;;;-6.51;66.82;99972.78;4974503;28;20118;-64
2022/03/30 01:42:19;;;;;;;3.03;2.78;;;;;;;-6.52;66.25;99976.28;4973297;28;20313;-63
2022/03/30 01:44:45;;;;;;;3.23;2.93;;;;;;;-6.58;66.57;99973.09;4973343;28;20091;-62
2022/03/30 01:47:11;;;;;;;4.85;3.55;;;;;;;-6.57;66.42;99967.00;4973207;28;20542;-63
2022/03/30 01:49:37;;;;;;;3.33;3.03;;;;;;;-6.56;66.25;99973.00;4973112;28;20030;-63
2022/03/30 01:52:03;;;;;;;5.73;3.80;;;;;;;-6.56;66.38;99973.84;4973484;28;20178;-61
2022/03/30 01:54:33;;;;;;;6.55;3.45;;;;;;;-6.64;67.33;99970.78;4976201;28;20043;-63
2022/03/30 01:56:59;;;;;;;4.63;2.60;;;;;;;-6.74;66.98;99951.41;4973284;28;20042;-62
2022/03/30 01:59:25;;;;;;;4.83;3.17;;;;;;;-6.64;67.02;99973.38;4973353;28;20049;-63
2022/03/30 02:01:52;;;;;;;6.78;3.50;;;;;;;-6.65;67.05;99974.28;4973243;28;20039;-64
2022/03/30 02:04:18;;;;;;;4.93;3.10;;;;;;;-6.63;67.14;99976.81;4972974;28;20076;-62
2022/03/30 02:06:44;;;;;;;5.40;3.10;;;;;;;-6.75;67.23;99957.50;4973226;28;20027;-62
2022/03/30 02:09:12;;;;;;;4.63;3.13;;;;;;;-6.62;66.98;99973.31;4975748;28;20054;-63
2022/03/30 02:11:38;;;;;;;25.48;12.93;;;;;;;-6.66;67.71;99967.41;4974242;28;20039;-64
2022/03/30 02:14:05;;;;;;;4.00;3.60;;;;;;;-6.70;67.37;99973.66;4972887;28;20043;-63
2022/03/30 02:16:30;;;;;;;4.57;3.08;;;;;;;-6.72;68.17;99975.47;4972899;28;20039;-64
2022/03/30 02:18:56;;;;;;;5.80;3.10;;;;;;;-6.76;68.18;99975.69;4973032;28;20042;-62
2022/03/30 02:21:22;;;;;;;3.57;2.83;;;;;;;-6.75;68.22;99975.63;4972945;28;20045;-61
2022/03/30 02:23:49;;;;;;;3.90;3.40;;;;;;;-6.78;68.48;99978.38;4974163;28;20030;-65
2022/03/30 02:26:15;;;;;;;3.60;3.28;;;;;;;-6.75;68.62;99982.56;4975566;28;20042;-62
2022/03/30 02:28:51;;;;;;;4.85;3.25;;;;;;;-6.73;68.39;99981.56;4972918;28;20521;-62
2022/03/30 02:31:18;;;;;;;4.00;3.60;;;;;;;-6.74;68.48;99985.06;4972750;28;20130;-64
2022/03/30 02:33:43;;;;;;;3.70;3.40;;;;;;;-6.76;68.81;99986.91;4972750;28;20391;-62
2022/03/30 02:36:09;;;;;;;8.30;4.77;;;;;;;-6.79;68.36;99987.03;4972945;28;20039;-64
2022/03/30 02:38:34;;;;;;;5.40;3.53;;;;;;;-6.79;68.60;99987.03;4972943;28;20039;-62
2022/03/30 02:41:01;;;;;;;4.43;3.43;;;;;;;-6.75;68.60;99978.22;4974787;28;20039;-64
2022/03/30 02:43:26;;;;;;;4.35;3.58;;;;;;;-6.76;68.17;99979.13;4972896;28;20062;-61
2022/03/30 02:45:52;;;;;;;6.00;3.53;;;;;;;-6.74;68.04;99985.06;4972725;28;20414;-61
2022/03/30 02:48:18;;;;;;;5.10;3.50;;;;;;;-6.73;67.84;99976.38;4973044;28;20549;-64
2022/03/30 02:50:51;;;;;;;3.63;3.20;;;;;;;-6.69;68.10;99975.34;4956235;28;20051;-65
2022/03/30 02:53:18;;;;;;;3.75;3.35;;;;;;;-6.65;67.67;99979.47;4973181;28;20043;-61
2022/03/30 02:55:45;;;;;;;5.50;3.47;;;;;;;-6.58;67.35;99980.00;4973655;28;20110;-64
2022/03/30 02:58:11;;;;;;;5.07;3.30;;;;;;;-6.58;67.45;99967.91;4972778;28;20027;-63
2022/03/30 03:00:37;;;;;;;6.43;4.00;;;;;;;-6.57;67.23;99974.75;4973979;28;20046;-64
2022/03/30 03:03:04;;;;;;;5.82;3.28;;;;;;;-6.56;67.33;99976.44;4976216;28;20066;-62
2022/03/30 03:05:32;;;;;;;4.15;3.75;;;;;;;-6.56;66.83;99978.19;4976082;28;20049;-62
2022/03/30 03:08:02;;;;;;;5.00;3.30;;;;;;;-6.61;67.00;99967.22;4958707;28;20039;-64
2022/03/30 03:10:29;;;;;;;5.93;4.72;;;;;;;-6.51;66.97;99977.97;4976397;28;20042;-62
2022/03/30 03:12:55;;;;;;;3.58;3.28;;;;;;;-6.43;66.35;99978.41;4958958;28;20069;-63
2022/03/30 03:15:22;;;;;;;3.58;3.33;;;;;;;-6.39;66.04;99973.00;4975786;28;20503;-62
2022/03/30 03:17:47;;;;;;;5.97;3.72;;;;;;;-6.33;65.95;99969.31;4977664;28;20043;-63
2022/03/30 03:20:13;;;;;;;5.00;3.43;;;;;;;-6.28;66.13;99973.34;4977968;28;20097;-65
2022/03/30 03:22:40;;;;;;;4.10;3.80;;;;;;;-6.29;65.30;99968.22;4977142;28;20043;-64
2022/03/30 03:25:07;;;;;;;4.13;3.72;;;;;;;-6.29;65.95;99971.66;4978299;28;20118;-62
2022/03/30 03:27:32;;;;;;;5.10;2.85;;;;;;;-6.28;66.29;99977.69;4976164;28;20070;-63
2022/03/30 03:29:58;;;;;;;3.30;3.00;;;;;;;-6.34;65.97;99965.88;4975759;28;20093;-62
2022/03/30 03:32:24;;;;;;;5.40;3.00;;;;;;;-6.35;66.52;99968.53;4975579;28;20333;-63
2022/03/30 03:34:49;;;;;;;6.43;3.20;;;;;;;-6.47;66.68;99963.94;4975769;28;20038;-62
2022/03/30 03:37:15;;;;;;;5.00;3.63;;;;;;;-6.49;66.83;99979.56;4975519;28;20112;-63
2022/03/30 03:39:42;;;;;;;8.45;3.60;;;;;;;-6.45;67.05;99986.28;4976199;28;20530;-64
2022/03/30 03:42:08;;;;;;;7.60;3.65;;;;;;;-6.43;66.91;99981.84;4977004;28;20121;-64
2022/03/30 03:44:35;;;;;;;4.00;3.60;;;;;;;-6.39;66.59;99983.38;4975404;28;20134;-62
2022/03/30 03:47:03;;;;;;;3.72;3.38;;;;;;;-6.32;66.10;99979.59;4975490;28;20069;-65
2022/03/30 03:49:29;;;;;;;6.28;3.65;;;;;;;-6.31;66.81;99980.44;4975405;28;20054;-63
2022/03/30 03:51:55;;;;;;;7.03;2.93;;;;;;;-6.27;66.31;99976.78;4975212;28;20038;-63
2022/03/30 03:54:20;;;;;;;4.60;3.33;;;;;;;-6.22;66.59;99968.75;4975798;28;20037;-62
2022/03/30 03:56:46;;;;;;;31.20;6.00;;;;;;;-6.07;66.57;99973.16;4976992;28;20042;-64
2022/03/30 03:59:11;;;;;;;11.77;3.40;;;;;;;-5.96;66.88;99976.91;4975379;28;20113;-65
2022/03/30 04:01:37;;;;;;;5.53;3.57;;;;;;;-5.88;66.60;99975.66;4975103;28;20043;-64
2022/03/30 04:04:03;;;;;;;6.33;3.33;;;;;;;-5.76;66.18;99969.84;4975048;28;20483;-64
2022/03/30 04:06:30;;;;;;;6.47;3.47;;;;;;;-5.71;66.31;99968.69;4975121;28;20035;-64
2022/03/30 04:08:55;;;;;;;9.43;4.65;;;;;;;-5.64;66.41;99970.03;4974986;28;20038;-63
2022/03/30 04:11:21;;;;;;;7.37;4.07;;;;;;;-5.59;65.78;99964.59;4977607;28;20413;-64
2022/03/30 04:13:47;;;;;;;5.93;3.83;;;;;;;-5.54;66.20;99965.19;4975891;28;20066;-60
2022/03/30 04:16:15;;;;;;;4.67;3.50;;;;;;;-5.43;66.31;99962.91;4975337;28;20065;-64
2022/03/30 04:18:41;;;;;;;3.45;3.10;;;;;;;-5.44;66.64;99968.16;4975394;28;20058;-64
2022/03/30 04:21:06;;;;;;;5.43;3.63;;;;;;;-5.55;67.07;99973.91;4975114;28;20034;-64
2022/03/30 04:23:32;;;;;;;3.53;3.23;;;;;;;-5.53;66.85;99971.22;4974860;28;20082;-63
2022/03/30 04:25:57;;;;;;;7.60;3.00;;;;;;;-5.55;67.00;99973.91;4976253;28;20122;-64
2022/03/30 04:28:23;;;;;;;6.53;3.67;;;;;;;-5.59;67.50;99972.38;4975507;28;20062;-63
2022/03/30 04:30:49;;;;;;;7.73;4.07;;;;;;;-5.71;67.68;99967.84;4974660;28;20050;-68
2022/03/30 04:33:15;;;;;;;7.75;4.55;;;;;;;-5.67;67.90;99979.75;4974338;28;20046;-65
2022/03/30 04:35:40;;;;;;;5.70;3.75;;;;;;;-5.72;67.99;99981.75;4974402;28;20073;-65
2022/03/30 04:38:06;;;;;;;13.60;3.67;;;;;;;-5.86;68.02;99960.84;4974380;28;20043;-62
2022/03/30 04:40:32;;;;;;;8.97;4.13;;;;;;;-5.76;68.56;99975.03;4974916;28;20070;-64
2022/03/30 04:42:58;;;;;;;7.73;4.13;;;;;;;-5.81;68.63;99974.41;4975405;28;20086;-64
2022/03/30 04:45:48;;;;;;;7.82;3.88;;;;;;;-5.86;68.67;99976.41;4974613;28;20430;-63
2022/03/30 04:48:13;;;;;;;8.60;3.50;;;;;;;-5.82;68.75;99975.31;4974020;28;20055;-63
2022/03/30 04:50:39;;;;;;;7.63;3.93;;;;;;;-5.84;68.97;99974.56;4974024;28;20039;-63
2022/03/30 04:53:04;;;;;;;8.40;3.70;;;;;;;-5.89;69.32;99961.03;4973855;28;20046;-61
2022/03/30 04:55:31;;;;;;;10.57;3.47;;;;;;;-5.80;69.70;99968.31;4975775;28;20043;-63
2022/03/30 04:57:56;;;;;;;5.03;4.05;;;;;;;-5.75;69.37;99974.13;4975469;28;20050;-63
2022/03/30 05:00:22;;;;;;;6.20;4.37;;;;;;;-5.67;68.92;99970.19;4956668;28;20518;-62
2022/03/30 05:02:47;;;;;;;6.97;3.83;;;;;;;-5.59;68.71;99977.56;4973838;28;20441;-61
2022/03/30 05:05:13;;;;;;;11.40;4.57;;;;;;;-5.50;68.74;99981.44;4973915;28;20528;-65
2022/03/30 05:07:39;;;;;;;12.37;5.23;;;;;;;-5.44;68.42;99971.59;4973924;28;20122;-63
2022/03/30 05:10:06;;;;;;;6.73;3.20;;;;;;;-5.34;68.10;99977.13;4973868;28;20457;-63
2022/03/30 05:12:32;;;;;;;9.40;4.35;;;;;;;-5.23;67.94;99974.78;4975854;28;20085;-67
2022/03/30 05:14:58;;;;;;;4.53;3.17;;;;;;;-5.17;67.75;99974.50;4973912;28;20042;-61
2022/03/30 05:17:23;;;;;;;6.80;4.57;;;;;;;-5.01;68.07;99974.47;4956256;28;20236;-64
2022/03/30 05:19:49;;;;;;;10.27;3.20;;;;;;;-4.76;67.74;99972.22;4956195;28;20551;-62
2022/03/30 05:22:15;;;;;;;12.43;5.00;;;;;;;-4.56;66.76;99976.31;4973278;28;20038;-63
2022/03/30 05:24:40;;;;;;;7.23;3.70;;;;;;;-4.47;65.44;99969.75;4973378;28;20035;-63
2022/03/30 05:27:06;;;;;;;6.30;3.33;;;;;;;-4.28;65.23;99962.59;4976698;28;20050;-64
2022/03/30 05:29:31;;;;;;;7.07;3.47;;;;;;;-3.96;63.68;99970.28;4973875;28;20042;-63
2022/03/30 05:31:57;;;;;;;15.57;4.53;;;;;;;-3.74;63.22;99970.69;4973494;28;20034;-64
2022/03/30 05:34:24;;;;;;;7.10;3.60;;;;;;;-3.76;62.52;99967.31;4973044;28;20053;-64
2022/03/30 05:36:50;;;;;;;11.88;3.97;;;;;;;-3.87;62.98;99962.75;4973135;28;20043;-64
2022/03/30 05:39:16;;;;;;;7.60;4.07;;;;;;;-3.85;63.04;99967.88;4973882;28;20038;-63
2022/03/30 05:41:42;;;;;;;7.70;2.70;;;;;;;-3.76;62.82;99964.72;4958488;28;20061;-70
2022/03/30 05:44:12;;;;;;;5.23;3.47;;;;;;;-3.70;62.68;99971.34;4973968;28;20317;-68
2022/03/30 05:46:39;;;;;;;9.15;3.42;;;;;;;-3.69;62.82;99979.06;4956661;28;20211;-66
2022/03/30 05:49:06;;;;;;;13.35;4.45;;;;;;;-3.73;62.83;99972.38;4973245;28;20133;-68
2022/03/30 05:51:32;;;;;;;8.13;3.53;;;;;;;-3.68;62.10;99965.13;4956433;28;20027;-65
2022/03/30 05:53:59;;;;;;;19.47;4.63;;;;;;;-3.64;62.20;99977.00;4979843;28;20050;-67
2022/03/30 05:59:12;;;;;;;5.47;3.05;;;;;;;-3.82;63.13;99975.50;4975691;28;20042;-64
2022/03/30 06:01:38;;;;;;;5.82;3.47;;;;;;;-3.73;63.10;99972.38;4955658;28;20030;-71
2022/03/30 06:04:04;;;;;;;11.95;3.42;;;;;;;-3.50;62.95;99971.78;4973267;28;20130;-67
2022/03/30 06:06:29;;;;;;;8.33;4.23;;;;;;;-3.27;61.26;99979.97;4973323;28;20135;-66
2022/03/30 06:08:55;;;;;;;10.83;3.30;;;;;;;-3.19;61.54;99975.97;4957231;28;20050;-66
2022/03/30 06:11:20;;;;;;;9.17;3.20;;;;;;;-3.16;60.91;99974.97;4976826;28;20041;-66
2022/03/30 06:13:46;;;;;;;10.57;3.87;;;;;;;-3.15;61.28;99979.25;4973566;28;20046;-68
2022/03/30 06:16:15;;;;;;;12.30;4.30;;;;;;;-3.31;61.57;99976.72;4972870;28;20049;-64
2022/03/30 06:18:40;;;;;;;;;;;;;;;-3.26;62.07;99981.66;4973351;28;20039;-65
2022/03/30 06:21:06;;;;;;;14.97;4.17;;;;;;;-3.28;61.69;99976.53;4955732;28;20412;-65
2022/03/30 06:23:32;;;;;;;10.03;4.53;;;;;;;-3.25;61.67;99984.16;4955614;28;20043;-64
2022/03/30 06:25:57;;;;;;;16.67;5.13;;;;;;;-3.44;61.96;99968.84;4973766;28;20066;-62
2022/03/30 06:28:26;;;;;;;22.13;5.43;;;;;;;-3.33;63.06;99988.16;4973825;28;20042;-62
2022/03/30 06:30:52;;;;;;;19.27;4.25;;;;;;;-3.37;61.85;99990.13;4972848;28;20116;-62
2022/03/30 06:33:17;;;;;;;8.67;4.50;;;;;;;-3.45;63.02;99992.38;4972902;28;20486;-62
2022/03/30 06:35:43;;;;;;;14.80;3.57;;;;;;;-3.37;63.41;99984.91;4974722;28;20430;-63
2022/03/30 06:38:08;;;;;;;5.07;4.07;;;;;;;-3.26;63.38;99986.84;4959165;28;20038;-61
2022/03/30 06:40:34;;;;;;;14.13;3.43;;;;;;;-3.00;62.85;99978.28;4976972;28;20065;-64
2022/03/30 06:43:00;;;;;;;8.67;3.53;;;;;;;-2.84;62.36;99975.56;4977482;28;20058;-64
2022/03/30 06:45:28;;;;;;;8.38;3.38;;;;;;;-2.51;61.44;99976.00;4976323;28;20105;-63
2022/03/30 06:47:53;;;;;;;12.00;3.10;;;;;;;-2.39;61.54;99990.00;4976368;28;20153;-64
2022/03/30 06:50:19;;;;;;;10.07;2.73;;;;;;;-2.45;60.93;99981.75;4976401;28;20054;-62
2022/03/30 06:52:46;;;;;;;7.67;3.10;;;;;;;-2.57;61.03;99978.19;4976298;28;20137;-63
2022/03/30 06:55:15;;;;;;;8.75;2.92;;;;;;;-2.60;61.00;99975.78;4976302;28;20274;-63
2022/03/30 06:57:44;;;;;;;7.32;3.13;;;;;;;-2.38;61.21;99978.66;4978814;28;20093;-63
2022/03/30 07:00:13;;;;;;;14.35;4.75;;;;;;;-2.44;60.47;99971.22;4975915;28;20082;-63
2022/03/30 07:02:39;;;;;;;14.27;4.22;;;;;;;-2.46;61.42;99978.31;4976180;28;20081;-61
2022/03/30 07:05:05;;;;;;;15.10;3.63;;;;;;;-2.53;61.28;99974.44;4976679;28;20042;-65
2022/03/30 07:10:15;;;;;;;23.52;3.72;;;;;;;-2.56;61.23;99977.25;4976120;28;20509;-65
2022/03/30 07:12:41;;;;;;;24.00;3.90;;;;;;;-2.55;61.80;99973.69;4977860;28;20031;-62
2022/03/30 07:15:07;;;;;;;9.40;3.53;;;;;;;-2.31;61.20;99976.50;4958750;28;20053;-63
2022/03/30 07:17:33;;;;;;;13.30;4.00;;;;;;;-2.13;60.87;99980.50;4975907;28;20138;-61
2022/03/30 07:19:59;;;;;;;7.67;3.20;;;;;;;-2.14;60.66;99989.25;4976032;28;20073;-63
2022/03/30 07:22:25;;;;;;;6.32;2.92;;;;;;;-2.22;61.12;99992.38;4975941;28;20031;-62
2022/03/30 07:24:51;;;;;;;9.15;3.50;;;;;;;-2.27;61.74;99998.84;4975825;28;20057;-63
2022/03/30 07:27:17;;;;;;;7.47;2.97;;;;;;;-2.41;62.41;99981.44;4978712;28;20035;-64
2022/03/30 07:29:43;;;;;;;12.03;3.50;;;;;;;-2.32;62.21;99991.28;4958598;28;20061;-62
2022/03/30 07:32:08;;;;;;;14.10;2.80;;;;;;;-2.28;62.36;99995.38;4975421;28;20062;-63
2022/03/30 07:34:36;;;;;;;14.60;2.90;;;;;;;-2.45;62.50;99982.59;4975427;28;20035;-63
2022/03/30 07:37:03;;;;;;;13.73;2.70;;;;;;;-2.30;62.41;99992.03;4975359;28;20113;-62
2022/03/30 07:39:29;;;;;;;12.68;4.68;;;;;;;-2.02;62.64;99998.06;4975558;28;20039;-64
2022/03/30 07:41:54;;;;;;;17.37;4.80;;;;;;;-1.80;61.58;99987.84;4976604;28;20462;-65
2022/03/30 07:44:21;;;;;;;14.63;3.17;;;;;;;-1.64;61.16;100000.72;4975613;28;20058;-63
2022/03/30 07:46:48;;;;;;;15.43;3.47;;;;;;;-1.52;61.32;99996.41;4974953;28;20043;-62
2022/03/30 07:49:16;;;;;;;7.25;2.83;;;;;;;-1.34;60.42;100000.41;4975199;28;20070;-66
2022/03/30 07:51:42;;;;;;;12.60;3.20;;;;;;;-1.13;60.48;100009.38;4975267;28;20478;-62
2022/03/30 07:54:08;;;;;;;10.60;2.95;;;;;;;-0.99;61.09;100011.84;4974731;28;20038;-62
2022/03/30 07:56:34;;;;;;;12.67;4.73;;;;;;;-0.58;60.37;100009.84;4943112;28;20049;-62
2022/03/30 07:59:00;;;;;;;4.43;2.63;;;;;;;-0.45;60.59;100011.47;4975427;28;20043;-65
2022/03/30 08:01:26;;;;;;;15.95;3.60;;;;;;;-0.43;62.63;100008.75;4957454;28;20069;-63
2022/03/30 08:03:52;;;;;;;6.75;2.60;;;;;;;-0.28;62.96;100009.44;4957734;28;20042;-63
2022/03/30 08:06:17;;;;;;;10.60;3.47;;;;;;;-0.35;63.41;100017.72;4975104;28;20501;-63
2022/03/30 08:08:43;;;;;;;13.33;2.80;;;;;;;-0.56;65.10;100021.06;4974886;28;20031;-62
2022/03/30 08:11:09;;;;;;;3.47;2.30;;;;;;;-0.71;65.79;100010.72;4975960;28;20034;-63
2022/03/30 08:13:35;;;;;;;4.80;2.63;;;;;;;-0.82;66.31;100015.91;4975608;28;20047;-64
2022/03/30 08:16:02;;;;;;;7.25;2.17;;;;;;;-1.00;66.60;100017.19;4974935;28;20046;-62
2022/03/30 08:18:28;;;;;;;8.60;3.03;;;;;;;-1.09;67.28;100018.66;4957562;28;20063;-63
2022/03/30 08:23:38;;;;;;;5.63;3.15;;;;;;;-0.81;67.11;100027.19;4957194;28;20049;-61
2022/03/30 08:26:03;;;;;;;6.37;2.23;;;;;;;-0.64;66.31;100025.03;4976396;28;20039;-62
2022/03/30 08:28:29;;;;;;;6.73;2.60;;;;;;;-0.73;66.06;100017.03;4975549;28;20031;-66
2022/03/30 08:30:54;;;;;;;4.17;2.30;;;;;;;-0.74;65.36;100010.13;4974799;28;20045;-62
2022/03/30 08:33:23;;;;;;;8.73;2.80;;;;;;;-0.83;66.92;100016.84;4958209;28;20379;-62
2022/03/30 08:35:51;;;;;;;6.43;2.22;;;;;;;-0.48;65.38;100022.16;4975138;28;20085;-63
2022/03/30 08:38:17;;;;;;;9.80;2.20;;;;;;;-0.32;63.87;100027.94;4975736;28;20035;-63
2022/03/30 08:40:44;;;;;;;5.60;1.70;;;;;;;-0.47;64.83;100029.06;4976203;28;20039;-62
2022/03/30 08:43:13;;;;;;;2.47;2.05;;;;;;;-0.79;64.79;100022.69;4974933;28;20134;-62
2022/03/30 08:45:40;;;;;;;6.97;2.15;;;;;;;-0.91;65.54;100031.38;4974251;28;20038;-63
2022/03/30 08:48:05;;;;;;;4.43;1.90;;;;;;;-0.89;65.79;100042.56;4973985;28;20051;-64
2022/03/30 08:50:31;;;;;;;8.55;2.50;;;;;;;-0.78;65.57;100046.09;4974197;28;20676;-61
2022/03/30 08:53:02;;;;;;;6.13;2.00;;;;;;;-0.77;65.40;100054.78;4974215;28;20031;-63
2022/03/30 08:55:27;;;;;;;7.93;2.77;;;;;;;-0.73;65.59;100051.00;4974366;28;20042;-63
2022/03/30 08:57:54;;;;;;;3.77;2.90;;;;;;;-0.64;65.07;100047.75;4973946;28;20885;-62
2022/03/30 09:00:21;;;;;;;9.63;2.97;;;;;;;-0.79;65.99;100051.44;4974915;28;20081;-64
2022/03/30 09:02:55;;;;;;;2.40;1.85;;;;;;;-0.73;65.66;100045.78;4975051;28;20035;-63
2022/03/30 09:05:24;;;;;;;4.93;3.20;;;;;;;-0.79;66.60;100056.69;4974814;28;20438;-63
2022/03/30 09:08:06;;;;;;;7.78;2.40;;;;;;;-0.74;66.51;100062.41;4974094;28;20062;-63
2022/03/30 09:10:32;;;;;;;7.45;1.95;;;;;;;-0.73;66.75;100053.63;4974346;28;20058;-63
2022/03/30 09:12:58;;;;;;;4.47;2.50;;;;;;;-0.51;66.88;100045.09;4941056;28;20038;-65
2022/03/30 09:15:25;;;;;;;6.63;2.60;;;;;;;-0.32;66.57;100058.50;4973633;28;20057;-63
2022/03/30 09:17:59;;;;;;;3.88;2.03;;;;;;;-0.45;66.85;100053.34;4973592;28;20046;-62
2022/03/30 09:20:25;;;;;;;7.20;2.13;;;;;;;-0.72;67.00;100050.91;4973949;28;20050;-63
2022/03/30 09:22:57;;;;;;;4.50;2.28;;;;;;;-0.74;66.86;100068.47;4973618;28;20577;-63
2022/03/30 09:25:27;;;;;;;6.35;2.67;;;;;;;-0.83;65.66;100070.91;4974006;28;20042;-64
2022/03/30 09:27:55;;;;;;;7.25;2.45;;;;;;;-1.00;65.80;100072.91;4974509;28;20471;-61
2022/03/30 09:30:21;;;;;;;6.68;2.42;;;;;;;-1.06;66.01;100067.28;4973357;28;20701;-64
2022/03/30 09:32:49;;;;;;;4.85;3.10;;;;;;;-1.03;66.09;100073.13;4973739;28;20042;-64
2022/03/30 09:35:24;;;;;;;2.70;2.10;;;;;;;-1.19;66.20;100072.47;4956172;28;20113;-64
2022/03/30 09:38:08;;;;;;;11.27;2.72;;;;;;;-1.13;66.52;100077.31;4973437;28;20042;-63
2022/03/30 09:40:35;;;;;;;5.40;2.33;;;;;;;-0.87;64.96;100072.03;4973664;28;20085;-63
2022/03/30 09:43:16;;;;;;;14.60;2.28;;;;;;;-0.85;64.24;100073.63;4974206;28;20059;-64
2022/03/30 09:45:42;;;;;;;8.52;2.20;;;;;;;-0.77;63.49;100075.69;4973720;28;20170;-61
2022/03/30 09:48:22;;;;;;;7.80;2.20;;;;;;;-0.81;63.16;100079.47;4956394;28;20526;-61
2022/03/30 09:50:52;;;;;;;8.20;2.35;;;;;;;-0.86;62.62;100078.97;4973218;28;20042;-64
2022/03/30 09:53:19;;;;;;;7.97;3.90;;;;;;;-0.92;63.66;100085.44;4973162;28;20039;-63
2022/03/30 09:56:02;;;;;;;9.02;2.65;;;;;;;-0.81;63.92;100076.88;4974298;28;20415;-64
2022/03/30 09:58:31;;;;;;;8.32;2.50;;;;;;;-0.63;64.67;100071.16;4974040;28;20045;-63
2022/03/30 10:01:16;;;;;;;10.05;2.42;;;;;;;-0.42;64.40;100063.59;4973271;28;20165;-64
2022/03/30 10:03:50;;;;;;;7.28;2.92;;;;;;;-0.16;63.21;100081.81;4973253;28;20033;-64
2022/03/30 10:06:40;;;;;;;4.87;2.27;;;;;;;0.16;62.57;100067.19;4973354;28;20038;-61
2022/03/30 10:09:06;;;;;;;7.80;2.30;;;;;;;0.43;60.09;100071.34;4973306;28;20929;-62
2022/03/30 10:11:32;;;;;;;8.97;2.63;;;;;;;0.77;59.16;100080.94;4977721;28;20420;-62
2022/03/30 10:13:59;;;;;;;5.10;2.30;;;;;;;0.74;58.60;100081.19;4977093;28;20364;-64
2022/03/30 10:16:27;;;;;;;10.90;2.63;;;;;;;0.86;57.82;100074.97;4976912;28;20046;-62
2022/03/30 10:18:53;;;;;;;7.30;2.07;;;;;;;1.14;56.97;100083.34;4977330;28;20757;-63
2022/03/30 10:21:29;;;;;;;6.53;2.00;;;;;;;1.27;57.15;100083.25;4976754;28;20278;-64
2022/03/30 10:24:16;;;;;;;10.07;2.60;;;;;;;1.33;56.03;100080.13;4976657;28;20803;-64
2022/03/30 10:27:30;;;;;;;3.83;2.53;;;;;;;1.34;57.15;100085.25;4978014;28;20650;-62
2022/03/30 10:30:01;;;;;;;5.60;2.47;;;;;;;1.36;55.29;100082.50;4968466;28;20292;-63
2022/03/30 10:32:33;;;;;;;7.07;2.67;;;;;;;1.46;55.55;100089.56;4976945;28;20274;-63
2022/03/30 10:35:04;;;;;;;4.20;1.87;;;;;;;1.55;54.81;100088.84;4977009;28;20284;-64
2022/03/30 10:37:57;;;;;;;5.53;1.70;;;;;;;1.18;55.65;100079.56;4976545;28;20323;-62
2022/03/30 10:40:25;;;;;;;4.73;1.80;;;;;;;1.15;55.91;100074.53;4976558;28;20270;-62
2022/03/30 10:42:58;;;;;;;5.45;2.00;;;;;;;1.26;56.09;100090.28;4976984;28;20281;-64
2022/03/30 10:45:25;;;;;;;8.63;2.50;;;;;;;1.05;54.33;100100.63;4976300;28;20042;-63
2022/03/30 10:48:09;;;;;;;5.57;2.03;;;;;;;0.88;55.34;100090.63;4976504;28;20278;-64
2022/03/30 10:50:43;;;;;;;3.57;2.20;;;;;;;0.69;54.80;100099.03;4976345;28;20278;-62
2022/03/30 10:53:42;;;;;;;12.90;2.70;;;;;;;0.86;55.70;100079.41;4976316;28;20274;-64
2022/03/30 10:56:07;;;;;;;8.07;2.40;;;;;;;0.87;55.54;100086.34;4958405;28;20304;-64
2022/03/30 10:58:37;;;;;;;6.90;2.47;;;;;;;1.02;54.26;100084.31;4976246;28;20630;-64
2022/03/30 11:01:14;;;;;;;2.83;1.90;;;;;;;0.86;54.39;100080.22;4976482;28;20066;-63
2022/03/30 11:03:59;;;;;;;3.53;2.00;;;;;;;0.81;53.75;100077.13;4975905;28;20274;-63
2022/03/30 11:06:26;;;;;;;3.90;1.77;;;;;;;0.81;53.20;100077.13;4976087;28;20673;-63
2022/03/30 11:08:55;;;;;;;5.63;2.47;;;;;;;0.99;53.63;100076.69;4976058;28;20761;-62
2022/03/30 11:11:25;;;;;;;3.17;1.97;;;;;;;0.95;52.40;100072.63;4977279;28;20769;-62
2022/03/30 11:14:29;;;;;;;5.20;2.70;;;;;;;1.10;52.43;100072.25;4976325;28;20270;-63
2022/03/30 11:17:03;;;;;;;6.30;2.27;;;;;;;1.14;52.79;100070.25;4976635;28;20317;-61
2022/03/30 11:19:54;;;;;;;11.67;2.07;;;;;;;0.91;53.74;100080.75;4975942;28;20412;-63
2022/03/30 11:22:25;;;;;;;7.77;1.80;;;;;;;0.80;54.14;100067.59;4975261;28;20297;-63
2022/03/30 11:25:23;;;;;;;12.97;2.50;;;;;;;1.02;54.80;100084.31;4975743;28;20302;-64
2022/03/30 11:27:58;;;;;;;5.68;1.73;;;;;;;1.01;53.48;100085.25;4977102;28;20626;-62
2022/03/30 11:30:28;;;;;;;11.70;2.67;;;;;;;0.99;53.34;100071.44;4975825;28;20069;-63
2022/03/30 11:32:55;;;;;;;16.90;2.33;;;;;;;0.89;52.53;100077.41;4975620;28;20783;-63
2022/03/30 11:35:25;;;;;;;3.00;1.93;;;;;;;0.96;54.17;100079.53;4975337;28;20935;-63
2022/03/30 11:37:57;;;;;;;3.03;1.90;;;;;;;0.96;53.39;100084.78;4958004;28;20294;-64
2022/03/30 11:40:22;;;;;;;6.60;1.87;;;;;;;1.05;53.48;100074.41;4958413;28;20298;-62
2022/03/30 11:42:53;;;;;;;3.53;1.90;;;;;;;1.11;52.76;100084.44;4976243;28;20277;-65
2022/03/30 11:45:22;;;;;;;3.77;1.53;;;;;;;1.08;52.48;100083.84;4975979;28;20391;-63